Time;durP1;ratioP1;P1;durP2;ratioP2;P2;SDS_P1;SDS_P2;PMS_P1;PMS_P2;Temp;Humidity;BMP_temperature;BMP_pressure;BME280_temperature;BME280_humidity;BME280_pressure;Samples;Min_cycle;Max_cycle;Signal;HPM_P1;HPM_P2
2021/12/15 00:01:06;;;;;;;6.03;4.07;;;;;;;;;;5044573;28;20033;-35
2021/12/15 00:03:32;;;;;;;6.65;3.50;;;;;;;;;;5044606;28;20109;-31
2021/12/15 00:05:57;;;;;;;7.18;3.67;;;;;;;;;;5044558;28;20063;-30
2021/12/15 00:08:23;;;;;;;4.88;3.35;;;;;;;;;;5044686;28;20033;-30
2021/12/15 00:10:49;;;;;;;5.53;3.50;;;;;;;;;;5044841;28;20037;-28
2021/12/15 00:13:16;;;;;;;5.10;3.50;;;;;;;;;;5044953;28;20033;-33
2021/12/15 00:15:42;;;;;;;5.93;3.38;;;;;;;;;;5044710;28;20033;-33
2021/12/15 00:18:08;;;;;;;5.82;3.65;;;;;;;;;;5044745;28;20431;-31
2021/12/15 00:20:33;;;;;;;5.28;3.22;;;;;;;;;;5063708;28;20056;-31
2021/12/15 00:22:59;;;;;;;5.50;3.53;;;;;;;;;;5064361;28;20055;-29
2021/12/15 00:25:27;;;;;;;4.90;3.40;;;;;;;;;;5064230;28;20036;-29
2021/12/15 00:27:52;;;;;;;5.65;3.47;;;;;;;;;;5064470;28;20025;-27
2021/12/15 00:30:18;;;;;;;5.78;3.40;;;;;;;;;;5078599;28;20048;-31
2021/12/15 00:32:44;;;;;;;4.75;3.40;;;;;;;;;;5084806;28;20081;-29
2021/12/15 00:35:09;;;;;;;4.50;3.20;;;;;;;;;;5084494;28;20599;-33
2021/12/15 00:37:35;;;;;;;5.25;3.38;;;;;;;;;;5084970;28;20032;-29
2021/12/15 00:40:02;;;;;;;4.70;3.30;;;;;;;;;;5067522;28;20478;-28
2021/12/15 00:42:29;;;;;;;4.05;2.60;;;;;;;;;;5088029;28;20024;-29
2021/12/15 00:44:54;;;;;;;3.63;2.70;;;;;;;;;;5087958;28;20031;-29
2021/12/15 00:47:20;;;;;;;4.22;2.78;;;;;;;;;;5088814;28;20036;-27
2021/12/15 00:49:47;;;;;;;6.63;3.28;;;;;;;;;;5088801;28;20016;-29
2021/12/15 00:52:13;;;;;;;5.07;3.28;;;;;;;;;;5088636;28;20098;-31
2021/12/15 00:54:38;;;;;;;3.20;2.70;;;;;;;;;;5088558;28;20150;-27
2021/12/15 00:57:04;;;;;;;6.22;3.30;;;;;;;;;;5087655;28;20046;-32
2021/12/15 00:59:30;;;;;;;3.63;2.60;;;;;;;;;;5088601;28;20034;-32
2021/12/15 01:01:55;;;;;;;3.53;2.50;;;;;;;;;;5087891;28;20024;-31
2021/12/15 01:04:22;;;;;;;4.18;2.42;;;;;;;;;;5088182;28;20405;-32
2021/12/15 01:06:51;;;;;;;3.92;2.78;;;;;;;;;;5088190;28;20031;-34
2021/12/15 01:09:25;;;;;;;4.25;2.50;;;;;;;;;;5087677;28;20032;-35
2021/12/15 01:20:07;;;;;;;3.30;2.33;;;;;;;;;;5088234;28;20457;-28
2021/12/15 01:22:35;;;;;;;3.30;2.22;;;;;;;;;;5088007;28;20111;-29
2021/12/15 01:25:25;;;;;;;2.97;2.30;;;;;;;;;;5087579;28;20024;-34
2021/12/15 01:27:51;;;;;;;3.58;2.20;;;;;;;;;;5087770;28;20020;-29
2021/12/15 01:30:19;;;;;;;4.43;3.00;;;;;;;;;;5087651;28;20047;-30
2021/12/15 01:32:45;;;;;;;3.60;2.67;;;;;;;;;;5087523;28;20518;-33
2021/12/15 01:35:10;;;;;;;3.28;2.55;;;;;;;;;;5087673;28;20035;-30
2021/12/15 01:37:36;;;;;;;3.40;2.58;;;;;;;;;;5087699;28;20552;-33
2021/12/15 01:40:04;;;;;;;4.95;2.70;;;;;;;;;;5087566;28;20024;-33
2021/12/15 01:42:33;;;;;;;4.18;2.90;;;;;;;;;;5087596;28;20123;-34
2021/12/15 01:47:42;;;;;;;2.78;2.38;;;;;;;;;;5087409;28;20057;-29
2021/12/15 01:50:08;;;;;;;2.78;2.38;;;;;;;;;;5087110;28;20115;-28
2021/12/15 01:52:35;;;;;;;3.63;2.50;;;;;;;;;;5086282;28;20103;-30
2021/12/15 01:55:06;;;;;;;3.15;2.55;;;;;;;;;;5087191;28;20580;-31
2021/12/15 01:57:31;;;;;;;4.18;2.90;;;;;;;;;;5069411;28;20023;-30
2021/12/15 01:59:57;;;;;;;2.25;2.05;;;;;;;;;;5086759;28;20028;-30
2021/12/15 02:02:23;;;;;;;3.00;2.42;;;;;;;;;;5087387;28;20081;-32
2021/12/15 02:04:49;;;;;;;2.92;2.35;;;;;;;;;;5069017;28;20493;-30
2021/12/15 02:07:16;;;;;;;2.80;2.40;;;;;;;;;;5066287;28;20505;-29
2021/12/15 02:12:08;;;;;;;2.80;2.30;;;;;;;;;;5066732;28;20024;-28
2021/12/15 02:14:34;;;;;;;2.58;2.05;;;;;;;;;;5066704;28;20112;-33
2021/12/15 02:17:00;;;;;;;2.65;2.30;;;;;;;;;;5066074;28;20455;-28
2021/12/15 02:19:25;;;;;;;3.72;2.63;;;;;;;;;;5066518;28;20478;-27
2021/12/15 02:21:52;;;;;;;2.50;2.30;;;;;;;;;;5065972;28;20050;-28
2021/12/15 02:24:18;;;;;;;2.95;2.65;;;;;;;;;;5066613;28;20055;-26
2021/12/15 02:26:49;;;;;;;2.45;2.25;;;;;;;;;;5066359;28;20068;-30
2021/12/15 02:29:18;;;;;;;3.17;2.17;;;;;;;;;;5066447;28;20055;-28
2021/12/15 02:39:32;;;;;;;2.28;2.00;;;;;;;;;;5066691;28;20580;-29
2021/12/15 02:41:58;;;;;;;2.15;1.80;;;;;;;;;;5065928;28;20032;-30
2021/12/15 02:44:23;;;;;;;2.35;1.98;;;;;;;;;;5065633;28;20029;-28
2021/12/15 02:46:49;;;;;;;2.00;1.80;;;;;;;;;;5065691;28;20437;-27
2021/12/15 02:49:17;;;;;;;3.95;2.17;;;;;;;;;;5066018;28;20035;-31
2021/12/15 02:51:43;;;;;;;2.78;1.95;;;;;;;;;;5066391;28;20024;-30
2021/12/15 02:54:11;;;;;;;2.35;2.10;;;;;;;;;;5066163;28;20032;-29
2021/12/15 02:56:37;;;;;;;2.30;1.88;;;;;;;;;;5065827;28;20085;-32
2021/12/15 02:59:05;;;;;;;3.00;2.08;;;;;;;;;;5065432;28;20029;-30
2021/12/15 03:01:40;;;;;;;2.65;2.00;;;;;;;;;;5065911;28;20036;-29
2021/12/15 03:06:45;;;;;;;2.33;2.10;;;;;;;;;;5065830;28;20628;-32
2021/12/15 03:17:06;;;;;;;1.83;1.60;;;;;;;;;;5065435;28;20060;-28
2021/12/15 03:19:31;;;;;;;2.30;1.92;;;;;;;;;;5065428;28;20109;-28
2021/12/15 03:21:57;;;;;;;2.33;1.92;;;;;;;;;;5065612;28;20513;-30
2021/12/15 03:24:24;;;;;;;2.95;1.80;;;;;;;;;;5065654;28;20031;-26
2021/12/15 03:26:58;;;;;;;2.42;2.00;;;;;;;;;;5065280;28;20317;-28
2021/12/15 03:37:25;;;;;;;1.98;1.77;;;;;;;;;;5065110;28;20020;-28
2021/12/15 03:40:00;;;;;;;2.00;1.80;;;;;;;;;;5065412;28;20406;-30
2021/12/15 03:42:55;;;;;;;2.17;1.73;;;;;;;;;;5064781;28;20107;-29
2021/12/15 03:45:27;;;;;;;2.00;1.80;;;;;;;;;;5065570;28;20025;-30
2021/12/15 03:47:54;;;;;;;2.15;1.92;;;;;;;;;;5064796;28;20031;-28
2021/12/15 03:50:20;;;;;;;1.60;1.50;;;;;;;;;;5065258;28;20078;-28
2021/12/15 03:52:49;;;;;;;2.40;1.77;;;;;;;;;;5064992;28;20035;-29
2021/12/15 03:55:16;;;;;;;1.85;1.73;;;;;;;;;;5064668;28;20396;-32
2021/12/15 03:57:42;;;;;;;1.85;1.70;;;;;;;;;;5065178;28;20112;-29
2021/12/15 04:00:09;;;;;;;2.47;1.90;;;;;;;;;;5064706;28;20461;-29
2021/12/15 04:02:35;;;;;;;2.13;1.90;;;;;;;;;;5064791;28;20127;-26
2021/12/15 04:05:00;;;;;;;2.03;1.83;;;;;;;;;;5064844;28;20119;-29
2021/12/15 04:07:26;;;;;;;2.10;1.90;;;;;;;;;;5064461;28;20519;-27
2021/12/15 04:09:51;;;;;;;2.63;2.03;;;;;;;;;;5064176;28;20406;-29
2021/12/15 04:12:17;;;;;;;2.38;2.10;;;;;;;;;;5064444;28;20086;-35
2021/12/15 04:14:45;;;;;;;2.47;1.80;;;;;;;;;;5064818;28;20020;-27
2021/12/15 04:17:30;;;;;;;2.22;1.75;;;;;;;;;;5068061;28;20025;-28
2021/12/15 04:20:12;;;;;;;2.05;1.70;;;;;;;;;;5068723;28;20115;-28
2021/12/15 04:22:38;;;;;;;1.98;1.58;;;;;;;;;;5068755;28;20107;-29
2021/12/15 04:25:08;;;;;;;1.98;1.70;;;;;;;;;;5050549;28;20115;-28
2021/12/15 04:27:34;;;;;;;2.00;1.80;;;;;;;;;;5050783;28;20024;-32
2021/12/15 04:29:59;;;;;;;2.08;1.63;;;;;;;;;;5068584;28;20496;-32
2021/12/15 04:32:31;;;;;;;2.03;1.52;;;;;;;;;;5068775;28;20024;-27
2021/12/15 04:34:57;;;;;;;2.53;1.75;;;;;;;;;;5068881;28;20134;-29
2021/12/15 04:37:22;;;;;;;2.03;1.70;;;;;;;;;;5068299;28;20037;-29
2021/12/15 04:39:48;;;;;;;1.98;1.70;;;;;;;;;;5068829;28;20021;-28
2021/12/15 04:42:15;;;;;;;1.98;1.77;;;;;;;;;;5068216;28;20024;-32
2021/12/15 04:44:40;;;;;;;2.13;1.30;;;;;;;;;;5068561;28;20032;-29
2021/12/15 04:47:09;;;;;;;1.95;1.60;;;;;;;;;;5068051;28;20863;-30
2021/12/15 04:49:47;;;;;;;1.90;1.63;;;;;;;;;;5067116;28;20032;-34
2021/12/15 04:52:14;;;;;;;2.05;1.70;;;;;;;;;;5050025;28;20034;-32
2021/12/15 04:54:40;;;;;;;2.08;1.63;;;;;;;;;;5068574;28;20426;-32
2021/12/15 04:57:05;;;;;;;2.00;1.80;;;;;;;;;;5067506;28;20020;-34
2021/12/15 04:59:31;;;;;;;2.67;1.88;;;;;;;;;;5068106;28;20072;-34
2021/12/15 05:01:57;;;;;;;2.00;1.80;;;;;;;;;;5067963;28;20115;-33
2021/12/15 05:04:22;;;;;;;1.75;1.52;;;;;;;;;;5067898;28;20043;-32
2021/12/15 05:06:48;;;;;;;2.20;1.73;;;;;;;;;;5067882;28;20743;-30
2021/12/15 05:09:14;;;;;;;2.10;1.85;;;;;;;;;;5067655;28;20032;-31
2021/12/15 05:11:39;;;;;;;1.77;1.60;;;;;;;;;;5067854;28;20571;-33
2021/12/15 05:14:05;;;;;;;1.90;1.70;;;;;;;;;;5067604;28;20467;-34
2021/12/15 05:16:30;;;;;;;2.10;1.90;;;;;;;;;;5068131;28;20032;-32
2021/12/15 05:18:56;;;;;;;1.95;1.75;;;;;;;;;;5067332;28;20613;-31
2021/12/15 05:21:25;;;;;;;2.47;1.85;;;;;;;;;;5067524;28;20028;-30
2021/12/15 05:23:56;;;;;;;2.03;1.63;;;;;;;;;;5068028;28;20032;-29
2021/12/15 05:26:22;;;;;;;2.17;1.75;;;;;;;;;;5066912;28;20250;-30
2021/12/15 05:28:47;;;;;;;1.88;1.55;;;;;;;;;;5072349;28;20490;-29
2021/12/15 05:31:13;;;;;;;1.73;1.60;;;;;;;;;;5087668;28;20239;-29
2021/12/15 05:33:38;;;;;;;2.08;1.70;;;;;;;;;;5087480;28;20512;-32
2021/12/15 05:36:04;;;;;;;1.67;1.55;;;;;;;;;;5087769;28;20085;-30
2021/12/15 05:38:30;;;;;;;3.42;1.90;;;;;;;;;;5087386;28;20067;-32
2021/12/15 05:40:57;;;;;;;2.13;1.90;;;;;;;;;;5087233;28;20032;-30
2021/12/15 05:43:23;;;;;;;2.35;1.88;;;;;;;;;;5087513;28;20550;-32
2021/12/15 05:45:50;;;;;;;2.33;1.75;;;;;;;;;;5087527;28;20099;-29
2021/12/15 05:48:16;;;;;;;5.95;2.17;;;;;;;;;;5086987;28;20044;-32
2021/12/15 05:50:43;;;;;;;3.55;2.30;;;;;;;;;;5082066;28;20048;-31
2021/12/15 05:53:08;;;;;;;6.97;2.25;;;;;;;;;;5084148;28;20510;-35
2021/12/15 05:55:34;;;;;;;9.73;3.53;;;;;;;;;;5083499;28;20111;-29
2021/12/15 05:58:00;;;;;;;8.48;2.80;;;;;;;;;;5083407;28;20111;-33
2021/12/15 06:00:28;;;;;;;20.05;3.50;;;;;;;;;;5082983;28;20020;-31
2021/12/15 06:02:54;;;;;;;9.88;2.60;;;;;;;;;;5082695;28;20020;-31
2021/12/15 06:05:19;;;;;;;8.68;3.03;;;;;;;;;;5083623;28;20023;-29
2021/12/15 06:07:45;;;;;;;5.85;3.40;;;;;;;;;;5084316;28;20024;-33
2021/12/15 06:10:13;;;;;;;10.90;2.47;;;;;;;;;;5084133;28;20719;-33
2021/12/15 06:12:38;;;;;;;5.15;2.75;;;;;;;;;;5083652;28;20493;-31
2021/12/15 06:15:04;;;;;;;7.68;2.78;;;;;;;;;;5083507;28;20085;-34
2021/12/15 06:17:30;;;;;;;5.80;2.45;;;;;;;;;;5083124;28;20027;-33
2021/12/15 06:19:56;;;;;;;9.75;2.85;;;;;;;;;;5083943;28;20027;-32
2021/12/15 06:22:25;;;;;;;7.85;2.60;;;;;;;;;;5083916;28;20118;-31
2021/12/15 06:24:52;;;;;;;8.80;3.17;;;;;;;;;;5084307;28;20035;-32
2021/12/15 06:27:20;;;;;;;8.07;2.40;;;;;;;;;;5083395;28;20121;-30
2021/12/15 06:29:46;;;;;;;4.85;2.60;;;;;;;;;;5083158;28;20055;-34
2021/12/15 06:32:12;;;;;;;6.43;2.70;;;;;;;;;;5083480;28;20036;-35
2021/12/15 06:34:37;;;;;;;3.97;2.47;;;;;;;;;;5083950;28;20028;-29
2021/12/15 06:37:03;;;;;;;3.58;2.50;;;;;;;;;;5083747;28;20032;-32
2021/12/15 06:39:30;;;;;;;5.13;2.60;;;;;;;;;;5083694;28;20083;-30
2021/12/15 06:41:56;;;;;;;8.88;3.88;;;;;;;;;;5083129;28;20479;-29
2021/12/15 06:44:22;;;;;;;5.50;2.22;;;;;;;;;;5083685;28;20160;-33
2021/12/15 06:47:19;;;;;;;8.18;2.85;;;;;;;;;;5084376;28;20024;-29
2021/12/15 07:00:31;;;;;;;3.83;2.60;;;;;;;;;;5046662;28;20115;-32
2021/12/15 07:02:56;;;;;;;5.05;3.00;;;;;;;;;;5062705;28;20052;-31
2021/12/15 07:05:23;;;;;;;5.05;2.78;;;;;;;;;;5063630;28;20553;-30
2021/12/15 07:07:48;;;;;;;7.82;2.40;;;;;;;;;;5063720;28;20043;-32
2021/12/15 07:10:16;;;;;;;3.97;2.50;;;;;;;;;;5063336;28;20032;-30
2021/12/15 07:12:42;;;;;;;3.92;2.55;;;;;;;;;;5063378;28;20086;-32
2021/12/15 07:15:08;;;;;;;4.07;2.95;;;;;;;;;;5063241;28;20020;-36
2021/12/15 07:17:35;;;;;;;5.57;2.35;;;;;;;;;;5063627;28;20059;-31
2021/12/15 07:22:43;;;;;;;4.88;2.95;;;;;;;;;;5062718;28;20036;-35
2021/12/15 07:25:09;;;;;;;4.85;2.90;;;;;;;;;;5063104;28;20040;-29
2021/12/15 07:27:35;;;;;;;3.13;2.58;;;;;;;;;;5063078;28;20021;-36
2021/12/15 07:30:00;;;;;;;3.83;2.60;;;;;;;;;;5062588;28;20098;-33
2021/12/15 07:32:26;;;;;;;3.78;2.55;;;;;;;;;;5062621;28;20025;-36
2021/12/15 07:34:52;;;;;;;5.18;2.30;;;;;;;;;;5062717;28;20078;-31
2021/12/15 07:37:17;;;;;;;4.68;2.65;;;;;;;;;;5062392;28;20036;-30
2021/12/15 07:39:54;;;;;;;4.85;2.60;;;;;;;;;;5063041;28;20035;-29
2021/12/15 07:42:29;;;;;;;4.80;2.90;;;;;;;;;;5062903;28;20195;-30
2021/12/15 07:44:54;;;;;;;5.32;2.75;;;;;;;;;;5063263;28;20028;-34
2021/12/15 07:47:20;;;;;;;2.88;2.58;;;;;;;;;;5062473;28;20025;-29
2021/12/15 07:49:45;;;;;;;5.85;2.38;;;;;;;;;;5061807;28;20028;-31
2021/12/15 07:52:11;;;;;;;3.13;2.40;;;;;;;;;;5061864;28;20035;-30
2021/12/15 07:54:36;;;;;;;3.35;2.75;;;;;;;;;;5079332;28;20040;-30
2021/12/15 07:57:05;;;;;;;4.15;2.63;;;;;;;;;;5082555;28;20028;-30
2021/12/15 07:59:30;;;;;;;3.25;2.53;;;;;;;;;;5078183;28;20033;-32
2021/12/15 08:01:56;;;;;;;3.45;2.58;;;;;;;;;;5044782;28;20078;-31
2021/12/15 08:04:21;;;;;;;4.25;2.58;;;;;;;;;;5062223;28;20086;-31
2021/12/15 08:06:47;;;;;;;3.15;2.40;;;;;;;;;;5062302;28;20081;-33
2021/12/15 08:09:13;;;;;;;3.05;2.70;;;;;;;;;;5062759;28;20384;-31
2021/12/15 08:11:40;;;;;;;3.38;2.78;;;;;;;;;;5062889;28;20025;-31
2021/12/15 08:14:05;;;;;;;6.13;2.63;;;;;;;;;;5062724;28;20107;-32
2021/12/15 08:16:31;;;;;;;4.22;2.88;;;;;;;;;;5062328;28;20020;-28
2021/12/15 08:18:56;;;;;;;3.60;2.97;;;;;;;;;;5061530;28;20033;-33
2021/12/15 08:21:22;;;;;;;4.00;2.60;;;;;;;;;;5062936;28;20090;-30
2021/12/15 08:23:47;;;;;;;3.63;2.70;;;;;;;;;;5062494;28;20139;-31
2021/12/15 08:26:13;;;;;;;3.72;2.63;;;;;;;;;;5062449;28;20039;-32
2021/12/15 08:28:39;;;;;;;4.07;2.58;;;;;;;;;;5062573;28;20024;-28
2021/12/15 08:31:04;;;;;;;4.05;2.72;;;;;;;;;;5062386;28;20517;-28
2021/12/15 08:33:30;;;;;;;3.42;2.70;;;;;;;;;;5061971;28;20036;-32
2021/12/15 08:36:01;;;;;;;3.55;2.70;;;;;;;;;;5062733;28;20056;-32
2021/12/15 08:38:28;;;;;;;3.40;2.78;;;;;;;;;;5062312;28;20032;-35
2021/12/15 08:40:54;;;;;;;3.55;2.55;;;;;;;;;;5061959;28;20033;-30
2021/12/15 08:43:19;;;;;;;3.28;2.67;;;;;;;;;;5061915;28;20450;-32
2021/12/15 08:45:51;;;;;;;2.55;2.35;;;;;;;;;;5062513;28;20028;-35
2021/12/15 08:48:17;;;;;;;3.95;2.72;;;;;;;;;;5061812;28;20017;-33
2021/12/15 08:50:43;;;;;;;3.70;2.75;;;;;;;;;;5061895;28;20438;-30
2021/12/15 08:53:10;;;;;;;3.20;2.80;;;;;;;;;;5062315;28;20032;-31
2021/12/15 08:55:36;;;;;;;3.47;2.78;;;;;;;;;;5062434;28;20111;-32
2021/12/15 08:58:05;;;;;;;4.38;2.65;;;;;;;;;;5061640;28;20055;-28
2021/12/15 09:00:30;;;;;;;3.63;2.95;;;;;;;;;;5062280;28;20055;-33
2021/12/15 09:02:56;;;;;;;3.35;2.88;;;;;;;;;;5065184;28;20119;-31
2021/12/15 09:05:22;;;;;;;3.10;2.70;;;;;;;;;;5065653;28;20036;-36
2021/12/15 09:07:53;;;;;;;4.15;3.08;;;;;;;;;;5065530;28;20036;-31
2021/12/15 09:10:20;;;;;;;3.50;2.75;;;;;;;;;;5065811;28;20099;-32
2021/12/15 09:12:46;;;;;;;4.15;3.08;;;;;;;;;;5065614;28;20079;-29
2021/12/15 09:15:11;;;;;;;3.42;2.97;;;;;;;;;;5065532;28;20028;-33
2021/12/15 09:17:37;;;;;;;3.97;2.90;;;;;;;;;;5065306;28;20098;-28
2021/12/15 09:20:05;;;;;;;3.95;3.20;;;;;;;;;;5065735;28;20829;-32
2021/12/15 09:22:31;;;;;;;3.42;2.80;;;;;;;;;;5065556;28;20489;-28
2021/12/15 09:24:56;;;;;;;3.08;2.67;;;;;;;;;;5065288;28;20032;-32
2021/12/15 09:27:22;;;;;;;3.35;2.75;;;;;;;;;;5069532;28;20106;-29
2021/12/15 09:29:47;;;;;;;3.45;2.85;;;;;;;;;;5085167;28;20471;-33
2021/12/15 09:32:14;;;;;;;3.55;3.00;;;;;;;;;;5085695;28;20028;-28
2021/12/15 09:34:39;;;;;;;4.55;3.15;;;;;;;;;;5085740;28;20075;-32
2021/12/15 09:37:05;;;;;;;3.63;2.80;;;;;;;;;;5085040;28;20494;-31
2021/12/15 09:39:31;;;;;;;3.25;2.95;;;;;;;;;;5085351;28;20066;-28
2021/12/15 09:41:56;;;;;;;3.58;3.15;;;;;;;;;;5085175;28;20476;-31
2021/12/15 09:44:25;;;;;;;3.15;2.70;;;;;;;;;;5085250;28;20460;-29
2021/12/15 10:03:26;;;;;;;3.45;2.70;;;;;;;;;;5083935;28;20072;-31
2021/12/15 10:06:02;;;;;;;3.10;2.80;;;;;;;;;;5084874;28;20024;-31
2021/12/15 10:11:20;;;;;;;3.45;2.97;;;;;;;;;;5073979;28;20110;-30
2021/12/15 10:19:39;;;;;;;4.15;3.42;;;;;;;;;;5021706;28;20056;-30
2021/12/15 10:22:08;;;;;;;4.97;3.42;;;;;;;;;;5047823;28;20170;-29
2021/12/15 10:24:46;;;;;;;3.35;2.90;;;;;;;;;;5064004;28;20066;-32
2021/12/15 10:27:12;;;;;;;3.97;3.03;;;;;;;;;;5064532;28;20059;-31
2021/12/15 10:29:56;;;;;;;4.47;3.60;;;;;;;;;;5064060;28;20105;-30
2021/12/15 10:32:27;;;;;;;3.70;3.20;;;;;;;;;;5064137;28;20102;-29
2021/12/15 10:35:01;;;;;;;4.18;3.40;;;;;;;;;;5063202;28;20025;-30
2021/12/15 10:37:26;;;;;;;3.97;3.40;;;;;;;;;;5063569;28;20035;-29
2021/12/15 10:40:19;;;;;;;4.47;3.35;;;;;;;;;;5064217;28;20032;-33
2021/12/15 10:42:44;;;;;;;4.47;3.30;;;;;;;;;;5064215;28;20032;-34
2021/12/15 10:45:11;;;;;;;4.82;3.75;;;;;;;;;;5064014;28;20268;-31
2021/12/15 10:47:41;;;;;;;5.13;4.00;;;;;;;;;;5063834;28;20056;-30
2021/12/15 10:50:12;;;;;;;4.38;3.58;;;;;;;;;;5063838;28;20028;-32
2021/12/15 10:52:55;;;;;;;5.03;4.07;;;;;;;;;;5063997;28;20032;-31
2021/12/15 10:55:26;;;;;;;;;;;;;;;;;;5063955;28;20530;-30
2021/12/15 10:57:52;;;;;;;4.80;3.58;;;;;;;;;;5063510;28;20002;-33
2021/12/15 11:00:19;;;;;;;3.72;3.30;;;;;;;;;;5063912;28;20035;-32
2021/12/15 11:02:44;;;;;;;4.63;3.55;;;;;;;;;;5063534;28;20038;-32
2021/12/15 11:05:15;;;;;;;4.50;3.50;;;;;;;;;;5063542;28;20028;-30
2021/12/15 11:07:52;;;;;;;4.32;3.58;;;;;;;;;;5063734;28;20043;-33
2021/12/15 11:10:22;;;;;;;4.80;3.70;;;;;;;;;;5063798;28;20479;-29
2021/12/15 11:12:50;;;;;;;4.90;3.78;;;;;;;;;;5062998;28;20078;-30
2021/12/15 11:15:27;;;;;;;4.38;3.70;;;;;;;;;;5063428;28;20032;-32
2021/12/15 11:17:54;;;;;;;4.47;3.92;;;;;;;;;;5063277;28;20039;-31
2021/12/15 11:20:59;;;;;;;4.18;3.63;;;;;;;;;;5063190;28;20036;-32
2021/12/15 11:23:26;;;;;;;4.80;3.85;;;;;;;;;;5041656;28;20428;-30
2021/12/15 11:25:55;;;;;;;4.60;3.65;;;;;;;;;;5062292;28;20029;-32
2021/12/15 11:28:29;;;;;;;4.78;3.63;;;;;;;;;;5062556;28;20036;-28
2021/12/15 11:31:06;;;;;;;3.80;3.35;;;;;;;;;;5063011;28;20044;-34
2021/12/15 11:33:41;;;;;;;5.35;3.58;;;;;;;;;;5062995;28;20060;-29
2021/12/15 11:36:32;;;;;;;4.15;3.45;;;;;;;;;;5063170;28;20025;-28
2021/12/15 11:39:03;;;;;;;4.65;3.95;;;;;;;;;;5063143;28;20032;-32
2021/12/15 11:41:34;;;;;;;5.30;3.92;;;;;;;;;;5063271;28;20037;-35
2021/12/15 11:44:16;;;;;;;5.15;3.90;;;;;;;;;;5063247;28;20028;-33
2021/12/15 11:46:52;;;;;;;4.82;3.80;;;;;;;;;;5062868;28;20028;-28
2021/12/15 11:49:23;;;;;;;4.35;3.75;;;;;;;;;;5062991;28;20051;-32
2021/12/15 11:51:55;;;;;;;4.45;3.92;;;;;;;;;;5063020;28;20820;-28
2021/12/15 11:54:23;;;;;;;4.10;3.17;;;;;;;;;;5062294;28;20040;-30
2021/12/15 11:57:15;;;;;;;5.05;3.83;;;;;;;;;;5062693;28;20507;-30
2021/12/15 11:59:43;;;;;;;4.47;3.75;;;;;;;;;;5062619;28;20067;-33
2021/12/15 12:02:21;;;;;;;4.72;3.83;;;;;;;;;;5062701;28;20032;-29
2021/12/15 12:04:48;;;;;;;5.30;3.90;;;;;;;;;;5062789;28;20119;-33
2021/12/15 12:07:30;;;;;;;4.65;3.88;;;;;;;;;;5062619;28;20082;-33
2021/12/15 12:10:05;;;;;;;4.85;3.88;;;;;;;;;;5062915;28;20032;-28
2021/12/15 12:12:37;;;;;;;5.65;4.47;;;;;;;;;;5062914;28;20102;-30
2021/12/15 12:15:05;;;;;;;4.82;4.00;;;;;;;;;;5061882;28;20035;-31
2021/12/15 12:17:35;;;;;;;4.60;3.92;;;;;;;;;;5062912;28;20024;-31
2021/12/15 12:20:05;;;;;;;4.95;3.72;;;;;;;;;;5062651;28;20037;-30
2021/12/15 12:22:31;;;;;;;5.00;4.05;;;;;;;;;;5062121;28;20042;-29
2021/12/15 12:24:59;;;;;;;5.57;4.10;;;;;;;;;;5062575;28;20028;-36
2021/12/15 12:27:26;;;;;;;4.93;4.07;;;;;;;;;;5062554;28;20051;-33
2021/12/15 12:29:53;;;;;;;4.80;3.90;;;;;;;;;;5062538;28;20055;-28
2021/12/15 12:32:19;;;;;;;5.72;4.25;;;;;;;;;;5062277;28;20499;-34
2021/12/15 12:34:45;;;;;;;5.53;4.10;;;;;;;;;;5062443;28;20062;-33
2021/12/15 12:37:11;;;;;;;4.97;4.15;;;;;;;;;;5065050;28;20028;-33
2021/12/15 12:39:38;;;;;;;6.07;4.30;;;;;;;;;;5048326;28;20075;-30
2021/12/15 12:42:04;;;;;;;6.03;4.05;;;;;;;;;;5066055;28;20488;-30
2021/12/15 12:44:36;;;;;;;5.10;4.15;;;;;;;;;;5066323;28;20056;-29
2021/12/15 12:47:10;;;;;;;5.57;4.30;;;;;;;;;;5066121;28;20028;-35
2021/12/15 13:00:57;;;;;;;5.32;3.95;;;;;;;;;;5066191;28;20032;-32
2021/12/15 13:03:37;;;;;;;5.05;4.00;;;;;;;;;;5048190;28;20060;-29
2021/12/15 13:06:16;;;;;;;5.28;4.10;;;;;;;;;;5065662;28;20025;-35
2021/12/15 13:08:43;;;;;;;5.47;4.22;;;;;;;;;;5065479;28;20028;-28
2021/12/15 13:11:34;;;;;;;5.10;3.70;;;;;;;;;;5065326;28;20043;-29
2021/12/15 13:14:08;;;;;;;4.97;3.97;;;;;;;;;;5065588;28;20033;-28
2021/12/15 13:16:34;;;;;;;5.90;4.40;;;;;;;;;;5065773;28;20089;-29
2021/12/15 13:19:21;;;;;;;5.85;4.32;;;;;;;;;;5065765;28;20029;-31
2021/12/15 13:22:04;;;;;;;5.25;4.22;;;;;;;;;;5058598;28;20608;-32
2021/12/15 13:30:55;;;;;;;4.78;4.00;;;;;;;;;;5065349;28;20063;-29
2021/12/15 13:33:28;;;;;;;5.22;4.05;;;;;;;;;;5065424;28;20391;-33
2021/12/15 13:35:55;;;;;;;5.22;4.18;;;;;;;;;;5064850;28;20029;-34
2021/12/15 13:38:36;;;;;;;5.78;4.70;;;;;;;;;;5064671;28;20201;-33
2021/12/15 13:41:06;;;;;;;4.30;3.90;;;;;;;;;;5065200;28;20036;-30
2021/12/15 13:43:51;;;;;;;5.93;4.30;;;;;;;;;;5064702;28;20162;-34
2021/12/15 13:46:23;;;;;;;5.60;4.22;;;;;;;;;;5065429;28;20024;-32
2021/12/15 13:48:54;;;;;;;5.32;4.00;;;;;;;;;;5063527;28;20050;-30
2021/12/15 13:51:54;;;;;;;4.10;3.50;;;;;;;;;;5065138;28;20094;-31
2021/12/15 13:54:32;;;;;;;4.97;3.97;;;;;;;;;;5063998;28;20585;-30
2021/12/15 13:57:18;;;;;;;4.45;3.75;;;;;;;;;;5064332;28;20032;-33
2021/12/15 13:59:53;;;;;;;4.25;3.85;;;;;;;;;;5022099;28;20486;-33
2021/12/15 14:02:21;;;;;;;5.55;4.28;;;;;;;;;;5064728;28;20043;-30
2021/12/15 14:04:57;;;;;;;4.85;4.13;;;;;;;;;;5065176;28;20033;-30
2021/12/15 14:07:48;;;;;;;4.25;3.85;;;;;;;;;;5064033;28;20131;-28
2021/12/15 14:10:13;;;;;;;4.78;4.03;;;;;;;;;;5064598;28;20046;-29
2021/12/15 14:12:48;;;;;;;5.57;4.18;;;;;;;;;;5064976;28;20028;-34
2021/12/15 14:15:32;;;;;;;5.13;4.05;;;;;;;;;;5064154;28;20052;-35
2021/12/15 14:18:00;;;;;;;4.82;3.92;;;;;;;;;;5064242;28;20060;-31
2021/12/15 14:20:26;;;;;;;5.15;4.43;;;;;;;;;;5064360;28;20074;-33
2021/12/15 14:23:05;;;;;;;5.15;3.95;;;;;;;;;;5064280;28;20035;-31
2021/12/15 14:25:34;;;;;;;5.53;4.43;;;;;;;;;;5063795;28;20037;-32
2021/12/15 14:28:10;;;;;;;5.85;4.35;;;;;;;;;;5064346;28;20029;-29
2021/12/15 14:30:36;;;;;;;5.20;4.68;;;;;;;;;;5064310;28;20099;-32
2021/12/15 14:33:02;;;;;;;5.60;4.40;;;;;;;;;;5063922;28;20044;-33
2021/12/15 14:35:27;;;;;;;6.05;4.80;;;;;;;;;;5064070;28;20028;-31
2021/12/15 14:37:53;;;;;;;5.68;4.35;;;;;;;;;;5064255;28;20036;-29
2021/12/15 14:40:19;;;;;;;6.20;4.63;;;;;;;;;;5064157;28;20028;-30
2021/12/15 14:42:45;;;;;;;5.43;4.40;;;;;;;;;;5063917;28;20053;-34
2021/12/15 14:45:11;;;;;;;6.60;5.00;;;;;;;;;;5063389;28;20043;-29
2021/12/15 14:47:38;;;;;;;5.68;4.57;;;;;;;;;;5063678;28;20029;-30
2021/12/15 14:50:13;;;;;;;5.60;4.70;;;;;;;;;;5063447;28;20073;-31
2021/12/15 14:52:43;;;;;;;5.50;4.68;;;;;;;;;;5064090;28;20119;-30
2021/12/15 14:55:12;;;;;;;5.68;4.55;;;;;;;;;;5063027;28;20029;-31
2021/12/15 14:57:37;;;;;;;5.18;4.60;;;;;;;;;;5064058;28;20028;-28
2021/12/15 15:00:11;;;;;;;6.45;5.05;;;;;;;;;;5063594;28;20453;-32
2021/12/15 15:02:40;;;;;;;6.70;5.00;;;;;;;;;;5063627;28;20028;-30
2021/12/15 15:05:19;;;;;;;7.57;5.20;;;;;;;;;;5063096;28;20039;-31
2021/12/15 15:07:50;;;;;;;5.30;4.63;;;;;;;;;;5072424;28;20035;-29
2021/12/15 15:10:18;;;;;;;7.35;5.38;;;;;;;;;;5084179;28;20028;-31
2021/12/15 15:12:43;;;;;;;6.88;5.30;;;;;;;;;;5084051;28;20032;-36
2021/12/15 15:15:24;;;;;;;6.18;4.97;;;;;;;;;;5083464;28;20083;-30
2021/12/15 15:18:17;;;;;;;7.18;4.97;;;;;;;;;;5083797;28;20705;-33
2021/12/15 15:20:45;;;;;;;7.70;5.93;;;;;;;;;;5083671;28;20110;-30
2021/12/15 15:23:16;;;;;;;8.20;5.88;;;;;;;;;;5082516;28;20040;-31
2021/12/15 15:25:45;;;;;;;6.38;5.13;;;;;;;;;;5082523;28;20028;-30
2021/12/15 15:28:18;;;;;;;8.18;6.38;;;;;;;;;;5086169;28;20011;-31
2021/12/15 15:30:44;;;;;;;8.48;6.25;;;;;;;;;;5082082;28;20052;-30
2021/12/15 15:33:15;;;;;;;8.60;6.38;;;;;;;;;;5082471;28;20032;-31
2021/12/15 15:36:05;;;;;;;17.35;6.85;;;;;;;;;;5084295;28;20111;-28
2021/12/15 15:38:33;;;;;;;7.55;5.88;;;;;;;;;;5073940;28;20270;-28
2021/12/15 15:41:06;;;;;;;8.15;6.10;;;;;;;;;;5082902;28;20039;-32
2021/12/15 15:43:41;;;;;;;7.10;5.93;;;;;;;;;;5083052;28;20036;-30
2021/12/15 15:46:17;;;;;;;8.07;6.03;;;;;;;;;;5082728;28;20039;-33
2021/12/15 15:48:42;;;;;;;8.27;5.80;;;;;;;;;;5082973;28;20035;-33
2021/12/15 15:51:23;;;;;;;7.28;5.68;;;;;;;;;;5082957;28;20044;-28
2021/12/15 15:54:06;;;;;;;8.23;6.00;;;;;;;;;;5082847;28;20024;-30
2021/12/15 15:56:34;;;;;;;8.23;5.90;;;;;;;;;;5081010;28;20816;-30
2021/12/15 15:59:06;;;;;;;11.13;5.68;;;;;;;;;;5071244;28;20147;-31
2021/12/15 16:01:33;;;;;;;9.13;5.78;;;;;;;;;;5063446;28;20032;-28
2021/12/15 16:03:59;;;;;;;8.70;5.40;;;;;;;;;;5072410;28;20105;-30
2021/12/15 16:06:25;;;;;;;8.02;5.60;;;;;;;;;;5082924;28;20024;-30
2021/12/15 16:08:52;;;;;;;8.32;5.93;;;;;;;;;;5064121;28;20426;-28
2021/12/15 16:11:19;;;;;;;8.85;5.50;;;;;;;;;;5062153;28;20024;-31
2021/12/15 16:13:52;;;;;;;8.82;6.18;;;;;;;;;;5068571;28;20464;-31
2021/12/15 16:16:28;;;;;;;8.57;5.45;;;;;;;;;;5076266;28;20115;-30
2021/12/15 16:19:00;;;;;;;7.45;5.72;;;;;;;;;;5082234;28;20039;-28
2021/12/15 16:23:51;;;;;;;7.63;5.88;;;;;;;;;;5081657;28;20044;-31
2021/12/15 16:26:16;;;;;;;6.85;5.57;;;;;;;;;;5095387;28;20052;-32
2021/12/15 16:28:43;;;;;;;7.78;6.15;;;;;;;;;;5082059;28;20020;-29
2021/12/15 16:31:09;;;;;;;10.40;7.05;;;;;;;;;;5082425;28;20036;-31
2021/12/15 16:33:47;;;;;;;9.15;6.72;;;;;;;;;;5082110;28;20020;-30